sensor_id;sensor_type;location;lat;lon;timestamp;pressure;altitude;pressure_sealevel;temperature;humidity
26657;BME280;14279;50.010;8.260;2023-04-01T00:01:04;98725.84;;;11.93;67.18
26657;BME280;14279;50.010;8.260;2023-04-01T00:03:29;98719.81;;;11.81;67.19
26657;BME280;14279;50.010;8.260;2023-04-01T00:05:57;98723.16;;;11.72;67.73
26657;BME280;14279;50.010;8.260;2023-04-01T00:08:23;98735.59;;;12.02;66.55
26657;BME280;14279;50.010;8.260;2023-04-01T00:10:49;98733.94;;;11.79;67.45
26657;BME280;14279;50.010;8.260;2023-04-01T00:13:15;98725.16;;;11.80;67.37
26657;BME280;14279;50.010;8.260;2023-04-01T00:15:41;98724.91;;;11.71;67.11
26657;BME280;14279;50.010;8.260;2023-04-01T00:18:06;98740.44;;;11.73;67.29
26657;BME280;14279;50.010;8.260;2023-04-01T00:20:32;98741.75;;;12.01;66.58
26657;BME280;14279;50.010;8.260;2023-04-01T00:22:57;98725.41;;;11.88;66.36
26657;BME280;14279;50.010;8.260;2023-04-01T00:25:23;98732.75;;;11.83;66.82
26657;BME280;14279;50.010;8.260;2023-04-01T00:27:48;98717.09;;;11.71;66.71
26657;BME280;14279;50.010;8.260;2023-04-01T00:30:14;98731.31;;;11.79;66.79
26657;BME280;14279;50.010;8.260;2023-04-01T00:32:39;98721.50;;;11.71;66.93
26657;BME280;14279;50.010;8.260;2023-04-01T00:35:05;98726.59;;;11.84;66.71
26657;BME280;14279;50.010;8.260;2023-04-01T00:37:30;98717.34;;;11.91;66.06
26657;BME280;14279;50.010;8.260;2023-04-01T00:39:56;98722.41;;;11.81;66.36
26657;BME280;14279;50.010;8.260;2023-04-01T00:42:22;98716.53;;;11.79;66.31
26657;BME280;14279;50.010;8.260;2023-04-01T00:44:51;98714.25;;;11.86;66.56
26657;BME280;14279;50.010;8.260;2023-04-01T00:47:17;98715.53;;;11.80;66.31
26657;BME280;14279;50.010;8.260;2023-04-01T00:49:45;98727.06;;;11.89;66.69
26657;BME280;14279;50.010;8.260;2023-04-01T00:52:14;98715.31;;;11.83;66.44
26657;BME280;14279;50.010;8.260;2023-04-01T00:54:43;98720.19;;;11.65;67.17
26657;BME280;14279;50.010;8.260;2023-04-01T00:57:34;98718.41;;;11.88;66.58
26657;BME280;14279;50.010;8.260;2023-04-01T00:59:58;98703.72;;;11.76;66.45
26657;BME280;14279;50.010;8.260;2023-04-01T01:02:24;98701.22;;;11.75;66.13
26657;BME280;14279;50.010;8.260;2023-04-01T01:04:50;98705.63;;;11.74;66.67
26657;BME280;14279;50.010;8.260;2023-04-01T01:12:50;98712.69;;;11.83;66.45
26657;BME280;14279;50.010;8.260;2023-04-01T01:16:08;98713.53;;;11.72;66.68
26657;BME280;14279;50.010;8.260;2023-04-01T01:29:16;98712.84;;;11.59;66.84
26657;BME280;14279;50.010;8.260;2023-04-01T01:31:56;98700.16;;;11.54;67.11
26657;BME280;14279;50.010;8.260;2023-04-01T01:34:40;98705.25;;;11.56;66.66
26657;BME280;14279;50.010;8.260;2023-04-01T01:37:17;98711.28;;;11.68;66.46
26657;BME280;14279;50.010;8.260;2023-04-01T01:39:48;98705.13;;;11.69;66.76
26657;BME280;14279;50.010;8.260;2023-04-01T01:42:15;98703.81;;;11.52;67.18
26657;BME280;14279;50.010;8.260;2023-04-01T01:44:44;98708.31;;;11.50;67.24
26657;BME280;14279;50.010;8.260;2023-04-01T01:47:11;98705.50;;;11.64;66.96
26657;BME280;14279;50.010;8.260;2023-04-01T01:49:38;98705.25;;;11.56;66.77
26657;BME280;14279;50.010;8.260;2023-04-01T01:52:05;98705.13;;;11.69;66.69
26657;BME280;14279;50.010;8.260;2023-04-01T01:54:30;98703.81;;;11.75;66.72
26657;BME280;14279;50.010;8.260;2023-04-01T01:57:03;98707.59;;;11.70;66.77
26657;BME280;14279;50.010;8.260;2023-04-01T01:59:30;98703.94;;;11.84;66.70
26657;BME280;14279;50.010;8.260;2023-04-01T02:01:57;98700.03;;;11.56;67.08
26657;BME280;14279;50.010;8.260;2023-04-01T02:04:23;98704.88;;;11.61;67.37
26657;BME280;14279;50.010;8.260;2023-04-01T02:06:59;98694.72;;;11.46;67.71
26657;BME280;14279;50.010;8.260;2023-04-01T02:12:50;98693.88;;;11.34;67.67
26657;BME280;14279;50.010;8.260;2023-04-01T02:15:20;98694.81;;;11.33;68.02
26657;BME280;14279;50.010;8.260;2023-04-01T02:17:47;98695.75;;;11.32;67.76
26657;BME280;14279;50.010;8.260;2023-04-01T02:20:18;98709.28;;;11.37;68.35
26657;BME280;14279;50.010;8.260;2023-04-01T02:22:48;98695.31;;;11.38;68.02
26657;BME280;14279;50.010;8.260;2023-04-01T02:25:21;98710.44;;;11.33;68.73
26657;BME280;14279;50.010;8.260;2023-04-01T02:27:47;98704.53;;;11.31;68.48
26657;BME280;14279;50.010;8.260;2023-04-01T02:30:17;98700.03;;;11.45;68.33
26657;BME280;14279;50.010;8.260;2023-04-01T02:32:42;98706.06;;;11.45;67.80
26657;BME280;14279;50.010;8.260;2023-04-01T02:35:13;98717.75;;;11.17;68.87
26657;BME280;14279;50.010;8.260;2023-04-01T02:37:39;98715.06;;;11.30;68.49
26657;BME280;14279;50.010;8.260;2023-04-01T02:40:10;98706.16;;;11.21;69.11
26657;BME280;14279;50.010;8.260;2023-04-01T02:42:36;98703.84;;;11.40;68.55
26657;BME280;14279;50.010;8.260;2023-04-01T02:45:02;98703.94;;;11.27;68.99
26657;BME280;14279;50.010;8.260;2023-04-01T02:47:28;98701.91;;;11.31;68.69
26657;BME280;14279;50.010;8.260;2023-04-01T02:49:54;98687.19;;;11.07;69.63
26657;BME280;14279;50.010;8.260;2023-04-01T02:52:28;98717.88;;;11.15;69.66
26657;BME280;14279;50.010;8.260;2023-04-01T02:54:54;98691.47;;;11.20;69.30
26657;BME280;14279;50.010;8.260;2023-04-01T02:57:20;98699.28;;;11.20;69.72
26657;BME280;14279;50.010;8.260;2023-04-01T02:59:46;98704.47;;;11.20;69.63
26657;BME280;14279;50.010;8.260;2023-04-01T03:02:11;98711.34;;;11.21;70.05
26657;BME280;14279;50.010;8.260;2023-04-01T03:04:37;98695.28;;;11.16;70.23
26657;BME280;14279;50.010;8.260;2023-04-01T03:07:02;98690.78;;;11.18;70.12
26657;BME280;14279;50.010;8.260;2023-04-01T03:09:28;98689.94;;;11.17;70.05
26657;BME280;14279;50.010;8.260;2023-04-01T03:11:54;98687.41;;;11.04;69.82
26657;BME280;14279;50.010;8.260;2023-04-01T03:14:19;98694.31;;;11.17;69.63
26657;BME280;14279;50.010;8.260;2023-04-01T03:16:44;98713.72;;;11.12;69.97
26657;BME280;14279;50.010;8.260;2023-04-01T03:19:10;98703.22;;;11.25;69.51
26657;BME280;14279;50.010;8.260;2023-04-01T03:21:35;98687.22;;;11.19;69.92
26657;BME280;14279;50.010;8.260;2023-04-01T03:24:00;98687.06;;;11.09;70.17
26657;BME280;14279;50.010;8.260;2023-04-01T03:26:26;98706.50;;;11.16;70.29
26657;BME280;14279;50.010;8.260;2023-04-01T03:28:54;98691.09;;;11.13;70.11
26657;BME280;14279;50.010;8.260;2023-04-01T03:31:20;98693.13;;;11.21;70.07
26657;BME280;14279;50.010;8.260;2023-04-01T03:33:45;98703.81;;;11.18;70.35
26657;BME280;14279;50.010;8.260;2023-04-01T03:36:11;98693.41;;;11.40;69.49
26657;BME280;14279;50.010;8.260;2023-04-01T03:38:38;98691.38;;;11.21;70.15
26657;BME280;14279;50.010;8.260;2023-04-01T03:41:03;98706.41;;;11.18;70.10
26657;BME280;14279;50.010;8.260;2023-04-01T03:43:29;98695.41;;;11.25;70.25
26657;BME280;14279;50.010;8.260;2023-04-01T03:45:54;98709.19;;;11.03;71.38
26657;BME280;14279;50.010;8.260;2023-04-01T03:48:20;98691.59;;;11.18;71.33
26657;BME280;14279;50.010;8.260;2023-04-01T03:50:46;98684.50;;;11.20;70.65
26657;BME280;14279;50.010;8.260;2023-04-01T03:53:12;98701.66;;;11.11;71.77
26657;BME280;14279;50.010;8.260;2023-04-01T03:55:38;98700.56;;;11.03;71.46
26657;BME280;14279;50.010;8.260;2023-04-01T03:58:05;98698.31;;;11.09;71.07
26657;BME280;14279;50.010;8.260;2023-04-01T04:00:30;98689.16;;;10.92;71.44
26657;BME280;14279;50.010;8.260;2023-04-01T04:02:56;98692.75;;;11.03;71.17
26657;BME280;14279;50.010;8.260;2023-04-01T04:05:25;98698.44;;;11.08;71.04
26657;BME280;14279;50.010;8.260;2023-04-01T04:07:51;98690.88;;;11.05;71.28
26657;BME280;14279;50.010;8.260;2023-04-01T04:10:17;98699.56;;;10.92;71.36
26657;BME280;14279;50.010;8.260;2023-04-01T04:12:43;98695.44;;;10.90;71.34
26657;BME280;14279;50.010;8.260;2023-04-01T04:15:08;98692.84;;;10.90;71.92
26657;BME280;14279;50.010;8.260;2023-04-01T04:17:34;98691.81;;;11.04;71.14
26657;BME280;14279;50.010;8.260;2023-04-01T04:20:00;98685.31;;;11.09;70.68
26657;BME280;14279;50.010;8.260;2023-04-01T04:22:25;98694.88;;;10.97;71.40
26657;BME280;14279;50.010;8.260;2023-04-01T04:24:51;98700.34;;;11.06;71.31
26657;BME280;14279;50.010;8.260;2023-04-01T04:27:16;98705.50;;;10.83;71.93
26657;BME280;14279;50.010;8.260;2023-04-01T04:29:41;98705.28;;;10.97;71.65
26657;BME280;14279;50.010;8.260;2023-04-01T04:32:07;98696.31;;;11.02;71.63
26657;BME280;14279;50.010;8.260;2023-04-01T04:34:32;98698.41;;;10.96;71.67
26657;BME280;14279;50.010;8.260;2023-04-01T04:36:57;98688.63;;;11.11;71.50
26657;BME280;14279;50.010;8.260;2023-04-01T04:39:23;98685.34;;;10.85;72.45
26657;BME280;14279;50.010;8.260;2023-04-01T04:41:48;98702.75;;;10.85;72.66
26657;BME280;14279;50.010;8.260;2023-04-01T04:44:13;98683.88;;;10.94;72.00
26657;BME280;14279;50.010;8.260;2023-04-01T04:46:39;98691.66;;;10.94;72.39
26657;BME280;14279;50.010;8.260;2023-04-01T04:49:05;98690.97;;;10.92;72.52
26657;BME280;14279;50.010;8.260;2023-04-01T04:51:30;98694.50;;;10.91;72.16
26657;BME280;14279;50.010;8.260;2023-04-01T04:53:59;98698.06;;;11.01;71.88
26657;BME280;14279;50.010;8.260;2023-04-01T04:56:24;98694.72;;;10.88;72.32
26657;BME280;14279;50.010;8.260;2023-04-01T04:58:51;98698.63;;;10.82;72.43
26657;BME280;14279;50.010;8.260;2023-04-01T05:01:16;98699.72;;;10.91;72.45
26657;BME280;14279;50.010;8.260;2023-04-01T05:03:42;98698.75;;;10.92;72.23
26657;BME280;14279;50.010;8.260;2023-04-01T05:06:09;98698.16;;;10.88;72.43
26657;BME280;14279;50.010;8.260;2023-04-01T05:08:35;98693.22;;;10.96;72.00
26657;BME280;14279;50.010;8.260;2023-04-01T05:11:02;98709.63;;;10.97;71.70
26657;BME280;14279;50.010;8.260;2023-04-01T05:13:28;98685.81;;;10.79;72.41
26657;BME280;14279;50.010;8.260;2023-04-01T05:15:54;98700.94;;;10.74;72.86
26657;BME280;14279;50.010;8.260;2023-04-01T05:18:19;98702.78;;;10.96;72.13
26657;BME280;14279;50.010;8.260;2023-04-01T05:20:52;98699.66;;;10.79;72.47
26657;BME280;14279;50.010;8.260;2023-04-01T05:23:19;98699.22;;;10.86;72.30
26657;BME280;14279;50.010;8.260;2023-04-01T05:26:10;98695.13;;;11.06;71.68
26657;BME280;14279;50.010;8.260;2023-04-01T05:28:44;98696.56;;;10.74;72.58
26657;BME280;14279;50.010;8.260;2023-04-01T05:31:12;98714.25;;;10.93;71.28
26657;BME280;14279;50.010;8.260;2023-04-01T05:33:43;98701.59;;;10.89;71.65
26657;BME280;14279;50.010;8.260;2023-04-01T05:39:30;98686.94;;;10.99;70.75
26657;BME280;14279;50.010;8.260;2023-04-01T05:42:02;98686.91;;;10.88;71.55
26657;BME280;14279;50.010;8.260;2023-04-01T05:44:27;98702.31;;;10.91;71.19
26657;BME280;14279;50.010;8.260;2023-04-01T05:46:53;98684.75;;;10.81;71.58
26657;BME280;14279;50.010;8.260;2023-04-01T05:49:18;98685.63;;;10.93;71.20
26657;BME280;14279;50.010;8.260;2023-04-01T05:51:44;98683.50;;;10.98;70.65
26657;BME280;14279;50.010;8.260;2023-04-01T05:54:09;98680.88;;;10.87;70.88
26657;BME280;14279;50.010;8.260;2023-04-01T05:56:34;98683.00;;;10.93;71.07
26657;BME280;14279;50.010;8.260;2023-04-01T05:59:00;98695.94;;;10.95;71.00
26657;BME280;14279;50.010;8.260;2023-04-01T06:01:25;98683.78;;;11.07;70.95
26657;BME280;14279;50.010;8.260;2023-04-01T06:03:50;98692.84;;;10.90;71.25
26657;BME280;14279;50.010;8.260;2023-04-01T06:06:23;98687.88;;;10.98;70.92
26657;BME280;14279;50.010;8.260;2023-04-01T06:08:51;98679.84;;;11.01;70.90
26657;BME280;14279;50.010;8.260;2023-04-01T06:11:25;98678.09;;;11.13;69.98
26657;BME280;14279;50.010;8.260;2023-04-01T06:14:22;98684.38;;;11.10;70.11
26657;BME280;14279;50.010;8.260;2023-04-01T06:17:16;98680.94;;;10.74;71.52
26657;BME280;14279;50.010;8.260;2023-04-01T06:25:51;98682.94;;;11.06;70.76
26657;BME280;14279;50.010;8.260;2023-04-01T06:39:21;98702.97;;;10.81;72.60
26657;BME280;14279;50.010;8.260;2023-04-01T06:42:12;98681.59;;;10.89;72.21
26657;BME280;14279;50.010;8.260;2023-04-01T06:47:22;98688.38;;;11.03;72.53
26657;BME280;14279;50.010;8.260;2023-04-01T06:53:21;98693.63;;;10.79;73.83
26657;BME280;14279;50.010;8.260;2023-04-01T06:56:17;98694.41;;;11.04;72.86
26657;BME280;14279;50.010;8.260;2023-04-01T06:58:51;98695.38;;;11.14;72.83
26657;BME280;14279;50.010;8.260;2023-04-01T07:01:40;98686.97;;;11.10;73.05
26657;BME280;14279;50.010;8.260;2023-04-01T07:04:29;98695.94;;;11.06;73.61
26657;BME280;14279;50.010;8.260;2023-04-01T07:06:59;98684.13;;;11.13;73.92
26657;BME280;14279;50.010;8.260;2023-04-01T07:09:34;98687.59;;;11.25;73.64
26657;BME280;14279;50.010;8.260;2023-04-01T07:12:11;98687.53;;;11.03;74.80
26657;BME280;14279;50.010;8.260;2023-04-01T07:14:41;98679.28;;;11.20;74.64
26657;BME280;14279;50.010;8.260;2023-04-01T07:17:23;98688.72;;;11.10;74.85
26657;BME280;14279;50.010;8.260;2023-04-01T07:20:03;98691.72;;;11.28;74.73
26657;BME280;14279;50.010;8.260;2023-04-01T07:22:43;98667.75;;;11.00;74.95
26657;BME280;14279;50.010;8.260;2023-04-01T07:25:15;98684.59;;;11.07;74.46
26657;BME280;14279;50.010;8.260;2023-04-01T07:27:42;98690.53;;;11.43;73.56
26657;BME280;14279;50.010;8.260;2023-04-01T07:30:15;98691.38;;;11.44;74.01
26657;BME280;14279;50.010;8.260;2023-04-01T07:35:23;98696.00;;;11.52;73.39
26657;BME280;14279;50.010;8.260;2023-04-01T07:40:39;98704.06;;;11.71;72.79
26657;BME280;14279;50.010;8.260;2023-04-01T07:43:37;98699.34;;;11.65;71.89
26657;BME280;14279;50.010;8.260;2023-04-01T07:46:30;98701.69;;;11.68;71.96
26657;BME280;14279;50.010;8.260;2023-04-01T07:51:59;98706.53;;;11.96;70.89
26657;BME280;14279;50.010;8.260;2023-04-01T07:54:45;98708.44;;;11.94;71.53
26657;BME280;14279;50.010;8.260;2023-04-01T08:00:19;98715.31;;;11.61;72.59
26657;BME280;14279;50.010;8.260;2023-04-01T08:02:59;98718.41;;;11.54;73.32
26657;BME280;14279;50.010;8.260;2023-04-01T08:05:36;98719.00;;;11.81;73.42
26657;BME280;14279;50.010;8.260;2023-04-01T08:10:57;98728.72;;;11.79;74.42
26657;BME280;14279;50.010;8.260;2023-04-01T08:21:43;98739.00;;;11.57;75.87
26657;BME280;14279;50.010;8.260;2023-04-01T08:24:22;98742.66;;;11.43;77.04
26657;BME280;14279;50.010;8.260;2023-04-01T08:26:52;98736.75;;;11.41;77.02
26657;BME280;14279;50.010;8.260;2023-04-01T08:29:21;98747.03;;;11.43;77.82
26657;BME280;14279;50.010;8.260;2023-04-01T08:31:58;98744.53;;;11.30;78.11
26657;BME280;14279;50.010;8.260;2023-04-01T08:34:39;98739.00;;;11.46;79.12
26657;BME280;14279;50.010;8.260;2023-04-01T08:37:14;98754.88;;;11.43;79.86
26657;BME280;14279;50.010;8.260;2023-04-01T08:39:57;98750.25;;;11.69;78.80
26657;BME280;14279;50.010;8.260;2023-04-01T08:48:36;98755.75;;;12.00;79.61
26657;BME280;14279;50.010;8.260;2023-04-01T08:54:21;98749.56;;;11.79;79.05
26657;BME280;14279;50.010;8.260;2023-04-01T09:00:07;98749.34;;;11.82;79.00
26657;BME280;14279;50.010;8.260;2023-04-01T09:02:54;98757.13;;;11.48;80.61
26657;BME280;14279;50.010;8.260;2023-04-01T09:05:38;98760.69;;;11.69;81.23
26657;BME280;14279;50.010;8.260;2023-04-01T09:11:17;98766.81;;;11.46;82.21
26657;BME280;14279;50.010;8.260;2023-04-01T09:14:09;98762.00;;;11.64;82.37
26657;BME280;14279;50.010;8.260;2023-04-01T09:17:50;98770.41;;;11.56;83.65
26657;BME280;14279;50.010;8.260;2023-04-01T09:20:39;98769.69;;;11.54;83.27
26657;BME280;14279;50.010;8.260;2023-04-01T09:23:24;98764.72;;;11.62;84.21
26657;BME280;14279;50.010;8.260;2023-04-01T09:29:30;98768.75;;;11.55;84.56
26657;BME280;14279;50.010;8.260;2023-04-01T09:32:28;98764.72;;;11.73;84.74
26657;BME280;14279;50.010;8.260;2023-04-01T09:38:23;98775.19;;;12.08;83.50
26657;BME280;14279;50.010;8.260;2023-04-01T09:40:57;98772.56;;;11.85;84.87
26657;BME280;14279;50.010;8.260;2023-04-01T09:43:26;98780.88;;;12.01;85.09
26657;BME280;14279;50.010;8.260;2023-04-01T09:46:22;98782.06;;;12.09;84.55
26657;BME280;14279;50.010;8.260;2023-04-01T09:59:58;98797.34;;;12.13;85.00
26657;BME280;14279;50.010;8.260;2023-04-01T10:03:01;98794.16;;;12.21;84.67
26657;BME280;14279;50.010;8.260;2023-04-01T10:16:58;98803.53;;;12.24;84.11
26657;BME280;14279;50.010;8.260;2023-04-01T10:22:52;98807.19;;;12.32;84.20
26657;BME280;14279;50.010;8.260;2023-04-01T10:36:52;98811.91;;;12.61;83.34
26657;BME280;14279;50.010;8.260;2023-04-01T10:39:33;98806.31;;;12.55;82.60
26657;BME280;14279;50.010;8.260;2023-04-01T10:42:25;98805.97;;;12.59;82.62
26657;BME280;14279;50.010;8.260;2023-04-01T10:47:37;98798.94;;;12.60;83.02
26657;BME280;14279;50.010;8.260;2023-04-01T10:50:17;98801.47;;;12.61;82.87
26657;BME280;14279;50.010;8.260;2023-04-01T11:01:27;98800.34;;;12.75;80.69
26657;BME280;14279;50.010;8.260;2023-04-01T11:16:23;98808.63;;;12.81;81.33
26657;BME280;14279;50.010;8.260;2023-04-01T11:19:25;98808.44;;;12.72;82.48
26657;BME280;14279;50.010;8.260;2023-04-01T11:30:44;98810.63;;;12.44;80.34
26657;BME280;14279;50.010;8.260;2023-04-01T11:33:19;98817.22;;;12.71;81.60
26657;BME280;14279;50.010;8.260;2023-04-01T11:35:55;98811.81;;;12.52;82.07
26657;BME280;14279;50.010;8.260;2023-04-01T11:38:57;98816.75;;;12.66;81.21
26657;BME280;14279;50.010;8.260;2023-04-01T11:44:27;98827.47;;;12.96;81.47
26657;BME280;14279;50.010;8.260;2023-04-01T11:58:22;98829.19;;;13.06;82.04
26657;BME280;14279;50.010;8.260;2023-04-01T12:06:32;98850.00;;;12.30;86.04
26657;BME280;14279;50.010;8.260;2023-04-01T12:12:18;98853.41;;;12.65;85.59
26657;BME280;14279;50.010;8.260;2023-04-01T12:14:59;98855.00;;;12.88;85.96
26657;BME280;14279;50.010;8.260;2023-04-01T12:22:56;98859.25;;;12.45;85.82
26657;BME280;14279;50.010;8.260;2023-04-01T12:26:05;98858.31;;;13.02;84.64
26657;BME280;14279;50.010;8.260;2023-04-01T12:29:03;98860.22;;;13.00;83.20
26657;BME280;14279;50.010;8.260;2023-04-01T12:31:55;98858.56;;;12.99;84.70
26657;BME280;14279;50.010;8.260;2023-04-01T12:34:54;98860.19;;;13.11;83.65
26657;BME280;14279;50.010;8.260;2023-04-01T12:37:42;98864.72;;;13.09;84.30
26657;BME280;14279;50.010;8.260;2023-04-01T12:40:27;98878.66;;;12.87;84.15
26657;BME280;14279;50.010;8.260;2023-04-01T12:43:19;98860.34;;;12.31;87.19
26657;BME280;14279;50.010;8.260;2023-04-01T12:57:41;98875.25;;;12.41;87.13
26657;BME280;14279;50.010;8.260;2023-04-01T13:00:12;98872.78;;;12.51;86.35
26657;BME280;14279;50.010;8.260;2023-04-01T13:03:05;98866.16;;;12.24;87.46
26657;BME280;14279;50.010;8.260;2023-04-01T13:08:42;98888.56;;;12.15;87.34
26657;BME280;14279;50.010;8.260;2023-04-01T13:17:10;98893.78;;;12.15;90.77
26657;BME280;14279;50.010;8.260;2023-04-01T13:22:45;98875.97;;;12.31;92.42
26657;BME280;14279;50.010;8.260;2023-04-01T13:28:11;98886.34;;;11.97;93.91
26657;BME280;14279;50.010;8.260;2023-04-01T13:30:48;98893.91;;;12.25;93.87
26657;BME280;14279;50.010;8.260;2023-04-01T13:33:28;98884.38;;;12.01;94.19
26657;BME280;14279;50.010;8.260;2023-04-01T13:36:18;98899.94;;;12.25;94.89
26657;BME280;14279;50.010;8.260;2023-04-01T13:42:02;98882.03;;;12.32;91.40
26657;BME280;14279;50.010;8.260;2023-04-01T13:44:38;98882.50;;;12.14;90.95
26657;BME280;14279;50.010;8.260;2023-04-01T13:47:20;98874.31;;;12.19;89.41
26657;BME280;14279;50.010;8.260;2023-04-01T13:50:30;98864.00;;;12.40;89.98
26657;BME280;14279;50.010;8.260;2023-04-01T13:58:42;98880.47;;;12.18;86.82
26657;BME280;14279;50.010;8.260;2023-04-01T14:09:44;98901.25;;;12.42;84.97
26657;BME280;14279;50.010;8.260;2023-04-01T14:12:27;98905.63;;;12.42;84.34
26657;BME280;14279;50.010;8.260;2023-04-01T14:18:18;98912.16;;;12.25;83.89
26657;BME280;14279;50.010;8.260;2023-04-01T14:20:57;98905.97;;;12.37;85.66
26657;BME280;14279;50.010;8.260;2023-04-01T14:23:37;98917.72;;;12.20;85.76
26657;BME280;14279;50.010;8.260;2023-04-01T14:26:22;98922.78;;;12.10;86.67
26657;BME280;14279;50.010;8.260;2023-04-01T14:31:32;98921.72;;;12.01;87.07
26657;BME280;14279;50.010;8.260;2023-04-01T14:40:05;98925.66;;;12.18;85.32
26657;BME280;14279;50.010;8.260;2023-04-01T14:43:20;98934.13;;;11.98;85.59
26657;BME280;14279;50.010;8.260;2023-04-01T14:45:59;98937.03;;;12.17;85.07
26657;BME280;14279;50.010;8.260;2023-04-01T14:48:34;98935.25;;;12.07;86.59
26657;BME280;14279;50.010;8.260;2023-04-01T14:51:28;98939.44;;;11.96;86.97
26657;BME280;14279;50.010;8.260;2023-04-01T14:54:00;98946.31;;;12.22;86.65
26657;BME280;14279;50.010;8.260;2023-04-01T14:56:43;98943.44;;;12.13;84.75
26657;BME280;14279;50.010;8.260;2023-04-01T14:59:29;98942.63;;;12.13;84.62
26657;BME280;14279;50.010;8.260;2023-04-01T15:02:17;98948.31;;;12.29;83.69
26657;BME280;14279;50.010;8.260;2023-04-01T15:05:18;98954.97;;;12.45;83.13
26657;BME280;14279;50.010;8.260;2023-04-01T15:08:01;98939.09;;;12.48;81.03
26657;BME280;14279;50.010;8.260;2023-04-01T15:18:53;98961.63;;;13.06;77.32
26657;BME280;14279;50.010;8.260;2023-04-01T15:21:50;98948.69;;;12.82;76.89
26657;BME280;14279;50.010;8.260;2023-04-01T15:24:23;98957.34;;;13.05;77.77
26657;BME280;14279;50.010;8.260;2023-04-01T15:29:38;98967.69;;;12.95;78.42
26657;BME280;14279;50.010;8.260;2023-04-01T15:32:27;98965.06;;;12.95;78.07
26657;BME280;14279;50.010;8.260;2023-04-01T15:38:25;98969.00;;;12.78;78.33
26657;BME280;14279;50.010;8.260;2023-04-01T15:41:02;98971.25;;;12.83;78.64
26657;BME280;14279;50.010;8.260;2023-04-01T15:52:03;98986.19;;;12.92;78.51
26657;BME280;14279;50.010;8.260;2023-04-01T16:00:53;98989.66;;;12.58;81.88
26657;BME280;14279;50.010;8.260;2023-04-01T16:03:37;99008.38;;;12.52;82.10
26657;BME280;14279;50.010;8.260;2023-04-01T16:06:17;99000.81;;;12.83;82.27
26657;BME280;14279;50.010;8.260;2023-04-01T16:16:48;99015.06;;;12.79;82.23
26657;BME280;14279;50.010;8.260;2023-04-01T16:19:36;99019.91;;;12.61;83.04
26657;BME280;14279;50.010;8.260;2023-04-01T16:22:12;99015.88;;;12.68;82.87
26657;BME280;14279;50.010;8.260;2023-04-01T16:25:07;99027.81;;;12.48;82.48
26657;BME280;14279;50.010;8.260;2023-04-01T16:30:55;99032.69;;;12.53;82.69
26657;BME280;14279;50.010;8.260;2023-04-01T16:33:40;99026.41;;;12.55;82.17
26657;BME280;14279;50.010;8.260;2023-04-01T16:36:29;99032.59;;;12.66;82.31
26657;BME280;14279;50.010;8.260;2023-04-01T16:41:57;99034.03;;;12.58;81.96
26657;BME280;14279;50.010;8.260;2023-04-01T16:44:49;99038.88;;;12.52;81.93
26657;BME280;14279;50.010;8.260;2023-04-01T16:47:47;99044.44;;;12.47;81.47
26657;BME280;14279;50.010;8.260;2023-04-01T16:50:23;99044.06;;;12.40;81.01
26657;BME280;14279;50.010;8.260;2023-04-01T16:53:08;99050.00;;;12.54;79.88
26657;BME280;14279;50.010;8.260;2023-04-01T16:55:56;99055.66;;;12.25;80.39
26657;BME280;14279;50.010;8.260;2023-04-01T16:58:37;99059.22;;;12.35;80.40
26657;BME280;14279;50.010;8.260;2023-04-01T17:01:14;99066.47;;;12.43;80.47
26657;BME280;14279;50.010;8.260;2023-04-01T17:03:46;99068.16;;;12.44;80.22
26657;BME280;14279;50.010;8.260;2023-04-01T17:06:22;99078.63;;;12.55;79.91
26657;BME280;14279;50.010;8.260;2023-04-01T17:12:13;99080.53;;;12.29;81.24
26657;BME280;14279;50.010;8.260;2023-04-01T17:27:08;99096.25;;;11.67;84.44
26657;BME280;14279;50.010;8.260;2023-04-01T17:36:44;99106.75;;;11.79;84.83
26657;BME280;14279;50.010;8.260;2023-04-01T17:59:31;99135.25;;;11.69;83.18
26657;BME280;14279;50.010;8.260;2023-04-01T18:08:09;99158.56;;;11.70;81.99
26657;BME280;14279;50.010;8.260;2023-04-01T18:13:51;99161.44;;;12.05;81.01
26657;BME280;14279;50.010;8.260;2023-04-01T18:16:33;99160.50;;;12.06;80.60
26657;BME280;14279;50.010;8.260;2023-04-01T18:19:23;99177.66;;;11.84;80.44
26657;BME280;14279;50.010;8.260;2023-04-01T18:21:56;99176.28;;;11.91;80.45
26657;BME280;14279;50.010;8.260;2023-04-01T18:27:18;99178.56;;;11.96;79.76
26657;BME280;14279;50.010;8.260;2023-04-01T18:29:48;99187.09;;;11.98;80.15
26657;BME280;14279;50.010;8.260;2023-04-01T18:32:24;99185.75;;;11.92;79.91
26657;BME280;14279;50.010;8.260;2023-04-01T18:45:37;99207.41;;;11.55;81.76
26657;BME280;14279;50.010;8.260;2023-04-01T18:51:39;99223.75;;;11.45;81.58
26657;BME280;14279;50.010;8.260;2023-04-01T18:54:33;99230.22;;;11.65;80.82
26657;BME280;14279;50.010;8.260;2023-04-01T18:57:15;99237.50;;;11.72;81.21
26657;BME280;14279;50.010;8.260;2023-04-01T18:59:57;99240.66;;;11.78;80.35
26657;BME280;14279;50.010;8.260;2023-04-01T19:02:34;99244.00;;;11.54;81.05
26657;BME280;14279;50.010;8.260;2023-04-01T19:10:18;99247.88;;;11.48;80.61
26657;BME280;14279;50.010;8.260;2023-04-01T19:15:44;99256.06;;;11.29;81.35
26657;BME280;14279;50.010;8.260;2023-04-01T19:18:29;99265.00;;;11.12;81.88
26657;BME280;14279;50.010;8.260;2023-04-01T19:21:11;99263.16;;;11.27;81.59
26657;BME280;14279;50.010;8.260;2023-04-01T19:27:09;99268.69;;;11.35;81.65
26657;BME280;14279;50.010;8.260;2023-04-01T19:29:52;99270.66;;;11.19;81.49
26657;BME280;14279;50.010;8.260;2023-04-01T19:35:37;99270.13;;;11.13;81.77
26657;BME280;14279;50.010;8.260;2023-04-01T19:40:58;99268.75;;;11.08;81.93
26657;BME280;14279;50.010;8.260;2023-04-01T19:43:44;99278.75;;;11.14;81.89
26657;BME280;14279;50.010;8.260;2023-04-01T19:46:36;99278.34;;;11.07;82.00
26657;BME280;14279;50.010;8.260;2023-04-01T19:49:18;99287.22;;;11.18;81.60
26657;BME280;14279;50.010;8.260;2023-04-01T19:59:55;99307.00;;;11.07;81.34
26657;BME280;14279;50.010;8.260;2023-04-01T20:02:44;99307.91;;;11.06;81.41